PLT2201 SBEG-SBGR
Flight info
| Callsign | PLT2201 |
|---|---|
| Flight time | N/A |
| Altitude | 35000 |
| Route | ETAXA UZ87 EKUMA/N0456F370 UZ87 OBLUG UZ42 ZARES |
| Aircraft | A320/M-SDE3FGHIRWY/LB1 |
Departure
| Time | 2026-04-25 18:10 |
|---|---|
| Airport | Eduardo Gomes International Airport (SBEG) |
Arrival
| Time | N/A |
|---|---|
| Airport | São Paulo/Guarulhos–Governor André Franco Montoro International Airport (SBGR) |
| Time | Latitude | Longitude | Altitude | Speed | Heading |
|---|---|---|---|---|---|
| 2026-04-25 17:41 | -3.03278 | -60.04623 | 289 ft | 0 kts | 1° |
| 2026-04-25 17:59 | -3.03280 | -60.04623 | 286 ft | 2 kts | 1° |
| 2026-04-25 17:59 | -3.03302 | -60.04623 | 291 ft | 3 kts | 356° |
| 2026-04-25 17:59 | -3.03326 | -60.04620 | 289 ft | 3 kts | 346° |
| 2026-04-25 18:00 | -3.03347 | -60.04613 | 286 ft | 3 kts | 322° |
| 2026-04-25 18:00 | -3.03359 | -60.04598 | 286 ft | 2 kts | 270° |
| 2026-04-25 18:00 | -3.03359 | -60.04592 | 286 ft | 0 kts | 270° |
| 2026-04-25 18:03 | -3.03359 | -60.04593 | 286 ft | 1 kts | 270° |
| 2026-04-25 18:04 | -3.03359 | -60.04608 | 286 ft | 5 kts | 270° |
| 2026-04-25 18:04 | -3.03358 | -60.04657 | 286 ft | 8 kts | 273° |
| 2026-04-25 18:04 | -3.03358 | -60.04715 | 286 ft | 9 kts | 263° |
| 2026-04-25 18:04 | -3.03380 | -60.04778 | 290 ft | 10 kts | 244° |
| 2026-04-25 18:05 | -3.03421 | -60.04841 | 286 ft | 11 kts | 226° |
| 2026-04-25 18:05 | -3.03488 | -60.04890 | 286 ft | 13 kts | 215° |
| 2026-04-25 18:05 | -3.03555 | -60.04952 | 286 ft | 14 kts | 236° |
| 2026-04-25 18:05 | -3.03593 | -60.05044 | 288 ft | 15 kts | 253° |
| 2026-04-25 18:06 | -3.03621 | -60.05149 | 286 ft | 16 kts | 255° |
| 2026-04-25 18:06 | -3.03651 | -60.05263 | 288 ft | 18 kts | 255° |
| 2026-04-25 18:06 | -3.03677 | -60.05369 | 286 ft | 15 kts | 259° |
| 2026-04-25 18:06 | -3.03687 | -60.05478 | 286 ft | 17 kts | 266° |
| 2026-04-25 18:07 | -3.03691 | -60.05596 | 286 ft | 15 kts | 269° |
| 2026-04-25 18:07 | -3.03691 | -60.05705 | 286 ft | 16 kts | 270° |
| 2026-04-25 18:07 | -3.03691 | -60.05824 | 286 ft | 18 kts | 270° |
| 2026-04-25 18:07 | -3.03691 | -60.05953 | 286 ft | 19 kts | 270° |
| 2026-04-25 18:08 | -3.03690 | -60.06049 | 286 ft | 11 kts | 270° |
| 2026-04-25 18:08 | -3.03702 | -60.06125 | 286 ft | 12 kts | 239° |
| 2026-04-25 18:08 | -3.03745 | -60.06156 | 286 ft | 5 kts | 205° |
| 2026-04-25 18:08 | -3.03778 | -60.06167 | 286 ft | 6 kts | 194° |
| 2026-04-25 18:09 | -3.03825 | -60.06171 | 287 ft | 7 kts | 183° |
| 2026-04-25 18:09 | -3.03859 | -60.06165 | 291 ft | 4 kts | 129° |
| 2026-04-25 18:09 | -3.03859 | -60.06135 | 287 ft | 6 kts | 82° |
| 2026-04-25 18:09 | -3.03857 | -60.06050 | 287 ft | 39 kts | 90° |
| 2026-04-25 18:10 | -3.03858 | -60.05266 | 285 ft | 123 kts | 90° |
| 2026-04-25 18:10 | -3.03863 | -60.04255 | 372 ft | 158 kts | 90° |
| 2026-04-25 18:10 | -3.03874 | -60.03215 | 980 ft | 147 kts | 90° |
| 2026-04-25 18:10 | -3.03874 | -60.02194 | 1242 ft | 150 kts | 90° |
| 2026-04-25 18:11 | -3.03872 | -60.01139 | 1517 ft | 153 kts | 90° |
| 2026-04-25 18:11 | -3.03871 | -60.00068 | 1797 ft | 156 kts | 90° |
| 2026-04-25 18:11 | -3.03870 | -59.98933 | 1917 ft | 171 kts | 90° |
| 2026-04-25 18:11 | -3.03975 | -59.97680 | 1957 ft | 196 kts | 112° |
| 2026-04-25 18:12 | -3.04925 | -59.96631 | 2075 ft | 218 kts | 149° |
| 2026-04-25 18:12 | -3.06314 | -59.95838 | 2256 ft | 242 kts | 150° |
| 2026-04-25 18:12 | -3.07836 | -59.94951 | 2620 ft | 261 kts | 149° |
| 2026-04-25 18:12 | -3.09424 | -59.94013 | 3313 ft | 267 kts | 149° |
| 2026-04-25 18:13 | -3.11032 | -59.93055 | 4064 ft | 271 kts | 149° |
| 2026-04-25 18:13 | -3.12665 | -59.92078 | 4785 ft | 276 kts | 148° |
| 2026-04-25 18:13 | -3.14318 | -59.91084 | 5510 ft | 279 kts | 148° |
| 2026-04-25 18:14 | -3.17669 | -59.89063 | 6910 ft | 286 kts | 148° |
| 2026-04-25 18:14 | -3.19383 | -59.88032 | 7595 ft | 289 kts | 148° |
| 2026-04-25 18:14 | -3.21117 | -59.86988 | 8250 ft | 293 kts | 148° |
| 2026-04-25 18:14 | -3.22873 | -59.85931 | 8937 ft | 295 kts | 148° |
| 2026-04-25 18:15 | -3.24641 | -59.84867 | 9606 ft | 298 kts | 148° |
| 2026-04-25 18:15 | -3.26440 | -59.83788 | 10053 ft | 309 kts | 148° |
| 2026-04-25 18:15 | -3.28353 | -59.82640 | 10173 ft | 330 kts | 148° |
| 2026-04-25 18:15 | -3.30370 | -59.81430 | 10446 ft | 343 kts | 148° |
| 2026-04-25 18:16 | -3.32437 | -59.80192 | 10948 ft | 348 kts | 148° |
| 2026-04-25 18:16 | -3.34498 | -59.78955 | 11488 ft | 351 kts | 148° |
| 2026-04-25 18:16 | -3.38719 | -59.76409 | 12600 ft | 357 kts | 148° |
| 2026-04-25 18:17 | -3.40857 | -59.75117 | 13154 ft | 360 kts | 148° |
| 2026-04-25 18:17 | -3.43012 | -59.73819 | 13700 ft | 363 kts | 148° |
| 2026-04-25 18:17 | -3.45187 | -59.72510 | 14171 ft | 366 kts | 148° |
| 2026-04-25 18:17 | -3.47377 | -59.71195 | 14638 ft | 369 kts | 148° |
| 2026-04-25 18:18 | -3.49586 | -59.69866 | 15107 ft | 371 kts | 148° |
| 2026-04-25 18:18 | -3.51808 | -59.68530 | 15572 ft | 374 kts | 148° |
| 2026-04-25 18:18 | -3.54054 | -59.67186 | 16032 ft | 377 kts | 149° |
| 2026-04-25 18:18 | -3.56350 | -59.65889 | 16483 ft | 380 kts | 150° |
| 2026-04-25 18:19 | -3.58688 | -59.64632 | 16931 ft | 383 kts | 151° |
| 2026-04-25 18:19 | -3.61060 | -59.63386 | 17382 ft | 386 kts | 151° |
| 2026-04-25 18:19 | -3.63447 | -59.62134 | 17831 ft | 389 kts | 151° |
| 2026-04-25 18:19 | -3.65852 | -59.60865 | 18258 ft | 392 kts | 150° |
| 2026-04-25 18:20 | -3.68264 | -59.59580 | 18641 ft | 394 kts | 150° |
| 2026-04-25 18:20 | -3.70690 | -59.58275 | 19038 ft | 396 kts | 150° |
| 2026-04-25 18:20 | -3.73124 | -59.56963 | 19436 ft | 399 kts | 150° |
| 2026-04-25 18:20 | -3.75574 | -59.55643 | 19834 ft | 401 kts | 150° |
| 2026-04-25 18:21 | -3.78038 | -59.54315 | 20233 ft | 403 kts | 150° |
| 2026-04-25 18:21 | -3.80518 | -59.52977 | 20632 ft | 406 kts | 150° |
| 2026-04-25 18:21 | -3.83008 | -59.51632 | 21032 ft | 408 kts | 150° |
| 2026-04-25 18:21 | -3.85512 | -59.50279 | 21422 ft | 410 kts | 150° |
| 2026-04-25 18:22 | -3.88036 | -59.48916 | 21810 ft | 413 kts | 150° |
| 2026-04-25 18:22 | -3.88855 | -59.48475 | 21928 ft | 414 kts | 150° |
| 2026-04-25 18:22 | -3.93122 | -59.46176 | 22557 ft | 418 kts | 150° |
| 2026-04-25 18:22 | -3.95690 | -59.44791 | 22930 ft | 420 kts | 150° |
| 2026-04-25 18:23 | -3.98274 | -59.43399 | 23293 ft | 422 kts | 150° |
| 2026-04-25 18:23 | -4.00868 | -59.42002 | 23605 ft | 424 kts | 150° |
| 2026-04-25 18:23 | -4.03437 | -59.40618 | 23892 ft | 426 kts | 150° |
| 2026-04-25 18:23 | -4.06053 | -59.39205 | 24189 ft | 428 kts | 150° |
| 2026-04-25 18:24 | -4.08680 | -59.37786 | 24485 ft | 429 kts | 150° |
| 2026-04-25 18:24 | -4.11310 | -59.36365 | 24784 ft | 430 kts | 150° |
| 2026-04-25 18:24 | -4.13956 | -59.34938 | 25066 ft | 432 kts | 150° |
| 2026-04-25 18:24 | -4.16603 | -59.33511 | 25349 ft | 433 kts | 150° |
| 2026-04-25 18:25 | -4.19260 | -59.32078 | 25628 ft | 435 kts | 149° |
| 2026-04-25 18:25 | -4.21927 | -59.30639 | 25909 ft | 436 kts | 150° |
| 2026-04-25 18:25 | -4.24601 | -59.29199 | 26185 ft | 437 kts | 150° |
| 2026-04-25 18:25 | -4.27286 | -59.27752 | 26443 ft | 439 kts | 149° |
| 2026-04-25 18:26 | -4.29979 | -59.26301 | 26697 ft | 440 kts | 149° |
| 2026-04-25 18:26 | -4.32684 | -59.24844 | 26955 ft | 442 kts | 149° |
| 2026-04-25 18:26 | -4.35394 | -59.23383 | 27212 ft | 443 kts | 149° |
| 2026-04-25 18:26 | -4.38112 | -59.21919 | 27459 ft | 445 kts | 149° |
| 2026-04-25 18:27 | -4.40843 | -59.20446 | 27705 ft | 446 kts | 149° |
| 2026-04-25 18:27 | -4.43579 | -59.18972 | 27962 ft | 448 kts | 149° |
| 2026-04-25 18:27 | -4.46328 | -59.17493 | 28216 ft | 449 kts | 149° |
| 2026-04-25 18:27 | -4.49083 | -59.16006 | 28473 ft | 450 kts | 149° |
| 2026-04-25 18:28 | -4.51811 | -59.14536 | 28731 ft | 452 kts | 149° |
| 2026-04-25 18:28 | -4.54577 | -59.13042 | 29004 ft | 452 kts | 149° |
| 2026-04-25 18:28 | -4.57345 | -59.11547 | 29387 ft | 451 kts | 149° |
| 2026-04-25 18:29 | -4.62857 | -59.08574 | 30107 ft | 449 kts | 149° |
| 2026-04-25 18:29 | -4.65605 | -59.07088 | 30437 ft | 448 kts | 149° |
| 2026-04-25 18:30 | -4.73791 | -59.02666 | 31462 ft | 443 kts | 149° |
| 2026-04-25 18:30 | -4.76509 | -59.01199 | 31801 ft | 442 kts | 149° |
| 2026-04-25 18:30 | -4.79210 | -58.99739 | 32146 ft | 441 kts | 149° |
| 2026-04-25 18:30 | -4.81907 | -58.98283 | 32493 ft | 439 kts | 149° |
| 2026-04-25 18:31 | -4.84591 | -58.96833 | 32841 ft | 438 kts | 149° |
| 2026-04-25 18:31 | -4.87274 | -58.95383 | 33183 ft | 437 kts | 149° |
| 2026-04-25 18:31 | -4.89950 | -58.93940 | 33516 ft | 436 kts | 149° |
| 2026-04-25 18:31 | -4.92614 | -58.92503 | 33831 ft | 435 kts | 149° |
| 2026-04-25 18:32 | -4.95277 | -58.91069 | 34100 ft | 434 kts | 149° |
| 2026-04-25 18:32 | -4.97933 | -58.89638 | 34350 ft | 433 kts | 149° |
| 2026-04-25 18:32 | -5.00588 | -58.88204 | 34599 ft | 433 kts | 149° |
| 2026-04-25 18:32 | -5.03238 | -58.86768 | 34819 ft | 433 kts | 149° |
| 2026-04-25 18:33 | -5.08528 | -58.83897 | 34894 ft | 440 kts | 149° |
| 2026-04-25 18:33 | -5.13991 | -58.80947 | 34893 ft | 450 kts | 150° |
| 2026-04-25 18:34 | -5.19519 | -58.77966 | 34888 ft | 452 kts | 149° |
| 2026-04-25 18:34 | -5.25019 | -58.74981 | 34892 ft | 452 kts | 149° |
| 2026-04-25 18:35 | -5.30556 | -58.71974 | 34893 ft | 453 kts | 150° |
| 2026-04-25 18:35 | -5.36105 | -58.68982 | 34892 ft | 453 kts | 150° |
| 2026-04-25 18:36 | -5.41660 | -58.65986 | 34894 ft | 453 kts | 150° |
| 2026-04-25 18:36 | -5.47206 | -58.62978 | 34898 ft | 453 kts | 149° |
| 2026-04-25 18:37 | -5.52753 | -58.59969 | 34894 ft | 453 kts | 150° |
| 2026-04-25 18:37 | -5.58269 | -58.56986 | 34891 ft | 453 kts | 150° |
| 2026-04-25 18:38 | -5.63826 | -58.53984 | 34897 ft | 454 kts | 150° |
| 2026-04-25 18:38 | -5.69381 | -58.50972 | 34894 ft | 454 kts | 150° |
| 2026-04-25 18:39 | -5.74940 | -58.47958 | 34896 ft | 454 kts | 150° |
| 2026-04-25 18:39 | -5.80500 | -58.44948 | 34900 ft | 454 kts | 150° |
| 2026-04-25 18:40 | -5.86020 | -58.41958 | 34896 ft | 454 kts | 149° |
| 2026-04-25 18:40 | -5.91581 | -58.38936 | 34894 ft | 455 kts | 149° |
| 2026-04-25 18:41 | -5.97157 | -58.35910 | 34890 ft | 455 kts | 149° |
| 2026-04-25 18:41 | -6.02734 | -58.32883 | 34893 ft | 456 kts | 149° |
| 2026-04-25 18:42 | -6.06426 | -58.30877 | 34889 ft | 456 kts | 149° |
| 2026-04-25 18:42 | -6.13856 | -58.26843 | 34894 ft | 456 kts | 149° |
| 2026-04-25 18:43 | -6.19440 | -58.23812 | 34890 ft | 456 kts | 149° |
| 2026-04-25 18:43 | -6.25032 | -58.20783 | 34891 ft | 457 kts | 149° |
| 2026-04-25 18:44 | -6.30624 | -58.17740 | 34889 ft | 457 kts | 149° |
| 2026-04-25 18:44 | -6.36183 | -58.14723 | 34891 ft | 457 kts | 149° |
| 2026-04-25 18:45 | -6.41786 | -58.11683 | 34899 ft | 457 kts | 149° |
| 2026-04-25 18:45 | -6.47376 | -58.08640 | 34899 ft | 457 kts | 149° |
| 2026-04-25 18:46 | -6.52975 | -58.05597 | 34903 ft | 457 kts | 149° |
| 2026-04-25 18:46 | -6.58578 | -58.02558 | 34899 ft | 457 kts | 149° |
| 2026-04-25 18:47 | -6.64138 | -57.99531 | 34899 ft | 457 kts | 149° |
| 2026-04-25 18:47 | -6.69737 | -57.96484 | 34900 ft | 457 kts | 149° |
| 2026-04-25 18:48 | -6.75335 | -57.93433 | 34906 ft | 458 kts | 149° |
| 2026-04-25 18:48 | -6.79990 | -57.90899 | 34912 ft | 458 kts | 149° |
| 2026-04-25 18:49 | -6.86539 | -57.87332 | 34913 ft | 458 kts | 149° |
| 2026-04-25 18:49 | -6.92108 | -57.84302 | 34915 ft | 458 kts | 149° |
| 2026-04-25 18:50 | -6.97709 | -57.81248 | 34912 ft | 458 kts | 149° |
| 2026-04-25 18:50 | -7.02408 | -57.78689 | 34913 ft | 458 kts | 149° |
| 2026-04-25 18:51 | -7.07074 | -57.76156 | 34913 ft | 458 kts | 149° |
| 2026-04-25 18:51 | -7.13579 | -57.72607 | 34911 ft | 458 kts | 149° |
| 2026-04-25 18:52 | -7.19186 | -57.69542 | 34914 ft | 457 kts | 149° |
| 2026-04-25 18:52 | -7.24781 | -57.66492 | 34915 ft | 457 kts | 149° |
| 2026-04-25 18:53 | -7.30342 | -57.63453 | 34913 ft | 457 kts | 149° |
| 2026-04-25 18:53 | -7.35939 | -57.60400 | 34908 ft | 458 kts | 149° |
| 2026-04-25 18:54 | -7.44355 | -57.55803 | 34903 ft | 458 kts | 149° |
| 2026-04-25 18:55 | -7.49969 | -57.52742 | 34904 ft | 459 kts | 149° |
| 2026-04-25 18:55 | -7.55544 | -57.49697 | 34905 ft | 459 kts | 149° |
| 2026-04-25 18:56 | -7.61155 | -57.46627 | 34908 ft | 459 kts | 149° |
| 2026-04-25 18:56 | -7.66769 | -57.43543 | 34910 ft | 459 kts | 149° |
| 2026-04-25 18:57 | -7.72378 | -57.40467 | 34898 ft | 459 kts | 149° |
| 2026-04-25 18:57 | -7.77972 | -57.37414 | 34901 ft | 460 kts | 149° |
| 2026-04-25 18:58 | -7.83603 | -57.34345 | 34900 ft | 460 kts | 149° |
| 2026-04-25 18:58 | -7.92050 | -57.29732 | 34903 ft | 461 kts | 149° |
| 2026-04-25 18:59 | -8.03278 | -57.23561 | 34913 ft | 461 kts | 149° |
| 2026-04-25 19:00 | -8.11735 | -57.18933 | 34912 ft | 461 kts | 149° |
| 2026-04-25 19:01 | -8.20202 | -57.14298 | 34916 ft | 461 kts | 149° |
| 2026-04-25 19:01 | -8.25838 | -57.11202 | 34916 ft | 461 kts | 149° |
| 2026-04-25 19:02 | -8.34291 | -57.06555 | 34910 ft | 462 kts | 149° |
| 2026-04-25 19:03 | -8.41809 | -57.02433 | 34910 ft | 462 kts | 149° |
| 2026-04-25 19:03 | -8.48412 | -56.98801 | 34912 ft | 462 kts | 149° |
| 2026-04-25 19:04 | -8.56862 | -56.94162 | 34914 ft | 462 kts | 149° |
| 2026-04-25 19:05 | -8.68168 | -56.87947 | 34907 ft | 463 kts | 149° |
| 2026-04-25 19:06 | -8.73827 | -56.84833 | 34908 ft | 463 kts | 149° |
| 2026-04-25 19:06 | -8.82322 | -56.80154 | 34901 ft | 464 kts | 149° |
| 2026-04-25 19:07 | -8.90825 | -56.75476 | 34905 ft | 464 kts | 149° |
| 2026-04-25 19:08 | -8.99296 | -56.70811 | 34903 ft | 464 kts | 149° |
| 2026-04-25 19:09 | -9.09664 | -56.65078 | 34906 ft | 464 kts | 149° |
| 2026-04-25 19:10 | -9.19126 | -56.59862 | 34901 ft | 464 kts | 149° |
| 2026-04-25 19:10 | -9.24795 | -56.56741 | 34898 ft | 464 kts | 149° |
| 2026-04-25 19:11 | -9.30467 | -56.53613 | 34899 ft | 464 kts | 149° |
| 2026-04-25 19:11 | -9.36135 | -56.50478 | 34903 ft | 464 kts | 149° |
| 2026-04-25 19:12 | -9.41808 | -56.47337 | 34908 ft | 465 kts | 149° |
| 2026-04-25 19:12 | -9.47485 | -56.44200 | 34908 ft | 465 kts | 149° |
| 2026-04-25 19:13 | -9.53164 | -56.41065 | 34908 ft | 465 kts | 149° |
| 2026-04-25 19:13 | -9.58801 | -56.37938 | 34910 ft | 465 kts | 149° |
| 2026-04-25 19:14 | -9.64479 | -56.34794 | 34910 ft | 465 kts | 149° |
| 2026-04-25 19:14 | -9.70164 | -56.31653 | 34912 ft | 466 kts | 149° |
| 2026-04-25 19:15 | -9.75847 | -56.28503 | 34914 ft | 465 kts | 149° |
| 2026-04-25 19:15 | -9.81526 | -56.25353 | 34915 ft | 465 kts | 149° |
| 2026-04-25 19:16 | -9.87201 | -56.22214 | 34914 ft | 465 kts | 149° |
| 2026-04-25 19:16 | -9.92879 | -56.19067 | 34913 ft | 464 kts | 149° |
| 2026-04-25 19:17 | -9.98549 | -56.15918 | 34908 ft | 464 kts | 149° |
| 2026-04-25 19:17 | -10.04212 | -56.12772 | 34910 ft | 464 kts | 149° |
| 2026-04-25 19:18 | -10.09886 | -56.09625 | 34911 ft | 464 kts | 149° |
| 2026-04-25 19:18 | -10.15555 | -56.06473 | 34908 ft | 464 kts | 149° |
| 2026-04-25 19:19 | -10.21215 | -56.03318 | 34900 ft | 464 kts | 149° |
| 2026-04-25 19:19 | -10.26884 | -56.00168 | 34899 ft | 464 kts | 149° |
| 2026-04-25 19:20 | -10.32511 | -55.97043 | 34905 ft | 464 kts | 149° |
| 2026-04-25 19:20 | -10.38177 | -55.93895 | 34903 ft | 464 kts | 149° |
| 2026-04-25 19:21 | -10.43841 | -55.90742 | 34901 ft | 464 kts | 149° |
| 2026-04-25 19:21 | -10.52350 | -55.86001 | 34899 ft | 465 kts | 149° |
| 2026-04-25 19:22 | -10.58021 | -55.82838 | 34902 ft | 465 kts | 149° |
| 2026-04-25 19:23 | -10.66532 | -55.78090 | 34904 ft | 465 kts | 149° |
| 2026-04-25 19:23 | -10.75028 | -55.73356 | 34907 ft | 463 kts | 149° |
| 2026-04-25 19:24 | -10.80670 | -55.70209 | 34905 ft | 463 kts | 149° |
| 2026-04-25 19:25 | -10.91912 | -55.63927 | 34905 ft | 462 kts | 149° |
| 2026-04-25 19:25 | -10.97559 | -55.60764 | 34894 ft | 463 kts | 149° |
| 2026-04-25 19:26 | -11.03214 | -55.57599 | 34890 ft | 464 kts | 149° |
| 2026-04-25 19:26 | -11.08878 | -55.54432 | 34891 ft | 464 kts | 149° |
| 2026-04-25 19:27 | -11.12667 | -55.52319 | 34894 ft | 464 kts | 149° |
| 2026-04-25 19:27 | -11.20211 | -55.48104 | 34892 ft | 465 kts | 149° |
| 2026-04-25 19:28 | -11.25898 | -55.44926 | 34882 ft | 466 kts | 150° |
| 2026-04-25 19:28 | -11.31731 | -55.41998 | 34877 ft | 468 kts | 154° |
| 2026-04-25 19:29 | -11.37649 | -55.39306 | 34885 ft | 469 kts | 154° |
| 2026-04-25 19:29 | -11.43602 | -55.36577 | 34887 ft | 469 kts | 154° |
| 2026-04-25 19:30 | -11.49524 | -55.33778 | 34895 ft | 469 kts | 153° |
| 2026-04-25 19:30 | -11.55421 | -55.30948 | 34902 ft | 468 kts | 153° |
| 2026-04-25 19:31 | -11.61325 | -55.28137 | 34906 ft | 468 kts | 153° |
| 2026-04-25 19:31 | -11.67229 | -55.25336 | 34907 ft | 467 kts | 153° |
| 2026-04-25 19:32 | -11.73120 | -55.22536 | 34910 ft | 467 kts | 153° |
| 2026-04-25 19:32 | -11.76995 | -55.20638 | 34912 ft | 466 kts | 151° |
| 2026-04-25 19:33 | -11.84564 | -55.16344 | 34909 ft | 465 kts | 148° |
| 2026-04-25 19:33 | -11.90152 | -55.13029 | 34908 ft | 465 kts | 148° |
| 2026-04-25 19:34 | -11.95783 | -55.09778 | 34908 ft | 465 kts | 149° |
| 2026-04-25 19:34 | -12.01413 | -55.06593 | 34908 ft | 465 kts | 149° |
| 2026-04-25 19:35 | -12.07073 | -55.03382 | 34910 ft | 465 kts | 149° |
| 2026-04-25 19:35 | -12.12718 | -55.00166 | 34911 ft | 465 kts | 149° |
| 2026-04-25 19:36 | -12.18363 | -54.96940 | 34913 ft | 464 kts | 149° |
| 2026-04-25 19:36 | -12.24012 | -54.93716 | 34912 ft | 464 kts | 149° |
| 2026-04-25 19:37 | -12.29648 | -54.90494 | 34908 ft | 464 kts | 149° |
| 2026-04-25 19:37 | -12.35285 | -54.87266 | 34914 ft | 464 kts | 149° |
| 2026-04-25 19:38 | -12.40922 | -54.84048 | 34913 ft | 464 kts | 149° |
| 2026-04-25 19:38 | -12.46564 | -54.80828 | 34913 ft | 463 kts | 149° |
| 2026-04-25 19:39 | -12.52210 | -54.77638 | 34915 ft | 463 kts | 149° |
| 2026-04-25 19:39 | -12.56913 | -54.74992 | 34913 ft | 463 kts | 149° |
| 2026-04-25 19:40 | -12.62566 | -54.71811 | 34916 ft | 464 kts | 149° |
| 2026-04-25 19:40 | -12.69132 | -54.68109 | 34913 ft | 464 kts | 149° |
| 2026-04-25 19:41 | -12.73872 | -54.65440 | 34911 ft | 464 kts | 149° |
| 2026-04-25 19:41 | -12.78571 | -54.62786 | 34912 ft | 464 kts | 149° |
| 2026-04-25 19:42 | -12.85137 | -54.59072 | 34913 ft | 464 kts | 149° |
| 2026-04-25 19:42 | -12.90796 | -54.55874 | 34917 ft | 464 kts | 149° |
| 2026-04-25 19:43 | -12.96465 | -54.52684 | 34915 ft | 465 kts | 149° |
| 2026-04-25 19:43 | -13.02129 | -54.49496 | 34916 ft | 465 kts | 149° |
| 2026-04-25 19:44 | -13.07795 | -54.46293 | 34922 ft | 465 kts | 149° |
| 2026-04-25 19:44 | -13.13465 | -54.43087 | 34918 ft | 465 kts | 149° |
| 2026-04-25 19:45 | -13.19136 | -54.39883 | 34924 ft | 466 kts | 149° |
| 2026-04-25 19:45 | -13.24813 | -54.36673 | 34925 ft | 466 kts | 149° |
| 2026-04-25 19:46 | -13.30493 | -54.33461 | 34927 ft | 466 kts | 149° |
| 2026-04-25 19:46 | -13.36181 | -54.30248 | 34929 ft | 466 kts | 149° |
| 2026-04-25 19:47 | -13.41863 | -54.27031 | 34936 ft | 466 kts | 148° |
| 2026-04-25 19:47 | -13.47498 | -54.23835 | 34944 ft | 465 kts | 148° |
| 2026-04-25 19:48 | -13.53155 | -54.20632 | 34944 ft | 464 kts | 148° |
| 2026-04-25 19:48 | -13.58798 | -54.17433 | 34943 ft | 463 kts | 148° |
| 2026-04-25 19:49 | -13.63490 | -54.14777 | 34944 ft | 462 kts | 148° |
| 2026-04-25 19:49 | -13.70069 | -54.11041 | 34939 ft | 461 kts | 148° |
| 2026-04-25 19:50 | -13.78485 | -54.06255 | 34943 ft | 460 kts | 148° |
| 2026-04-25 19:51 | -13.84091 | -54.03070 | 34942 ft | 460 kts | 148° |
| 2026-04-25 19:51 | -13.89696 | -53.99887 | 34941 ft | 460 kts | 148° |
| 2026-04-25 19:52 | -13.95288 | -53.96700 | 34933 ft | 460 kts | 148° |
| 2026-04-25 19:52 | -14.00894 | -53.93504 | 34929 ft | 460 kts | 148° |
| 2026-04-25 19:53 | -14.06498 | -53.90305 | 34927 ft | 461 kts | 148° |
| 2026-04-25 19:53 | -14.12083 | -53.87131 | 34928 ft | 461 kts | 148° |
| 2026-04-25 19:54 | -14.17700 | -53.83936 | 34932 ft | 461 kts | 148° |
| 2026-04-25 19:54 | -14.23316 | -53.80720 | 34932 ft | 461 kts | 148° |
| 2026-04-25 19:55 | -14.28930 | -53.77509 | 34935 ft | 462 kts | 148° |
| 2026-04-25 19:55 | -14.34542 | -53.74299 | 34936 ft | 462 kts | 148° |
| 2026-04-25 19:56 | -14.40167 | -53.71090 | 34940 ft | 462 kts | 149° |
| 2026-04-25 19:56 | -14.45859 | -53.68006 | 34938 ft | 462 kts | 150° |
| 2026-04-25 19:57 | -14.51616 | -53.65057 | 34942 ft | 462 kts | 151° |
| 2026-04-25 19:57 | -14.57367 | -53.62095 | 34949 ft | 461 kts | 150° |
| 2026-04-25 19:58 | -14.62934 | -53.58898 | 34948 ft | 460 kts | 147° |
| 2026-04-25 19:58 | -14.68435 | -53.55523 | 34950 ft | 460 kts | 147° |
| 2026-04-25 19:59 | -14.73954 | -53.52171 | 34946 ft | 460 kts | 147° |
| 2026-04-25 19:59 | -14.79513 | -53.48879 | 34948 ft | 460 kts | 148° |
| 2026-04-25 20:00 | -14.85084 | -53.45602 | 34947 ft | 460 kts | 148° |
| 2026-04-25 20:00 | -14.90642 | -53.42315 | 34942 ft | 460 kts | 147° |
| 2026-04-25 20:01 | -14.98964 | -53.37367 | 34939 ft | 460 kts | 147° |
| 2026-04-25 20:01 | -15.04530 | -53.34080 | 34937 ft | 460 kts | 148° |
| 2026-04-25 20:02 | -15.10138 | -53.30857 | 34937 ft | 461 kts | 148° |
| 2026-04-25 20:02 | -15.15718 | -53.27679 | 34938 ft | 461 kts | 148° |
| 2026-04-25 20:03 | -15.21327 | -53.24468 | 34935 ft | 461 kts | 148° |
| 2026-04-25 20:03 | -15.26928 | -53.21231 | 34938 ft | 460 kts | 148° |
| 2026-04-25 20:04 | -15.32522 | -53.17992 | 34938 ft | 460 kts | 148° |
| 2026-04-25 20:04 | -15.38112 | -53.14759 | 34936 ft | 460 kts | 148° |
| 2026-04-25 20:05 | -15.43708 | -53.11539 | 34937 ft | 460 kts | 148° |
| 2026-04-25 20:05 | -15.49301 | -53.08313 | 34935 ft | 460 kts | 148° |
| 2026-04-25 20:06 | -15.54883 | -53.05062 | 34932 ft | 460 kts | 148° |
| 2026-04-25 20:06 | -15.60468 | -53.01814 | 34934 ft | 460 kts | 148° |
| 2026-04-25 20:07 | -15.66054 | -52.98580 | 34934 ft | 460 kts | 148° |
| 2026-04-25 20:07 | -15.71640 | -52.95337 | 34939 ft | 460 kts | 148° |
| 2026-04-25 20:08 | -15.77218 | -52.92093 | 34933 ft | 460 kts | 148° |
| 2026-04-25 20:08 | -15.82806 | -52.88845 | 34932 ft | 460 kts | 148° |
| 2026-04-25 20:09 | -15.88371 | -52.85608 | 34935 ft | 461 kts | 148° |
| 2026-04-25 20:09 | -15.93959 | -52.82343 | 34936 ft | 461 kts | 148° |
| 2026-04-25 20:10 | -15.99558 | -52.79083 | 34937 ft | 461 kts | 148° |
| 2026-04-25 20:10 | -16.05159 | -52.75827 | 34934 ft | 461 kts | 148° |
| 2026-04-25 20:11 | -16.10757 | -52.72556 | 34934 ft | 462 kts | 148° |
| 2026-04-25 20:11 | -16.16357 | -52.69283 | 34937 ft | 462 kts | 148° |
| 2026-04-25 20:12 | -16.21960 | -52.66015 | 34940 ft | 462 kts | 148° |
| 2026-04-25 20:12 | -16.25676 | -52.63846 | 34937 ft | 462 kts | 148° |
| 2026-04-25 20:13 | -16.33150 | -52.59481 | 34940 ft | 462 kts | 148° |
| 2026-04-25 20:13 | -16.38753 | -52.56195 | 34943 ft | 462 kts | 148° |
| 2026-04-25 20:14 | -16.44370 | -52.52910 | 34943 ft | 463 kts | 148° |
| 2026-04-25 20:14 | -16.49978 | -52.49621 | 34948 ft | 463 kts | 148° |
| 2026-04-25 20:15 | -16.55596 | -52.46322 | 34948 ft | 463 kts | 148° |
| 2026-04-25 20:15 | -16.61177 | -52.43050 | 34953 ft | 464 kts | 149° |
| 2026-04-25 20:16 | -16.66812 | -52.39743 | 34956 ft | 464 kts | 148° |
| 2026-04-25 20:16 | -16.72435 | -52.36436 | 34959 ft | 464 kts | 149° |
| 2026-04-25 20:17 | -16.78065 | -52.33133 | 34954 ft | 464 kts | 149° |
| 2026-04-25 20:17 | -16.83707 | -52.29832 | 34954 ft | 465 kts | 149° |
| 2026-04-25 20:18 | -16.89347 | -52.26523 | 34955 ft | 465 kts | 149° |
| 2026-04-25 20:18 | -16.94945 | -52.23224 | 34956 ft | 465 kts | 149° |
| 2026-04-25 20:19 | -17.00585 | -52.19906 | 34964 ft | 465 kts | 149° |
| 2026-04-25 20:19 | -17.06231 | -52.16588 | 34959 ft | 465 kts | 149° |
| 2026-04-25 20:20 | -17.11892 | -52.13296 | 34961 ft | 466 kts | 149° |
| 2026-04-25 20:20 | -17.17579 | -52.10024 | 34961 ft | 466 kts | 149° |
| 2026-04-25 20:21 | -17.23254 | -52.06750 | 34966 ft | 466 kts | 149° |
| 2026-04-25 20:21 | -17.28924 | -52.03457 | 34962 ft | 466 kts | 149° |
| 2026-04-25 20:22 | -17.32682 | -52.01274 | 34965 ft | 466 kts | 149° |
| 2026-04-25 20:22 | -17.40285 | -51.96857 | 34967 ft | 467 kts | 149° |
| 2026-04-25 20:23 | -17.45968 | -51.93557 | 34970 ft | 467 kts | 149° |
| 2026-04-25 20:23 | -17.51622 | -51.90274 | 34972 ft | 468 kts | 149° |
| 2026-04-25 20:24 | -17.57314 | -51.86960 | 34976 ft | 468 kts | 149° |
| 2026-04-25 20:24 | -17.63010 | -51.83642 | 34978 ft | 468 kts | 149° |
| 2026-04-25 20:25 | -17.68703 | -51.80320 | 34978 ft | 468 kts | 149° |
| 2026-04-25 20:25 | -17.74399 | -51.76998 | 34978 ft | 468 kts | 149° |
| 2026-04-25 20:26 | -17.80089 | -51.73683 | 34976 ft | 468 kts | 150° |
| 2026-04-25 20:26 | -17.85784 | -51.70373 | 34980 ft | 468 kts | 149° |
| 2026-04-25 20:27 | -17.90517 | -51.67612 | 34981 ft | 468 kts | 149° |
| 2026-04-25 20:27 | -17.96198 | -51.64281 | 34973 ft | 468 kts | 150° |
| 2026-04-25 20:28 | -18.01881 | -51.60952 | 34975 ft | 468 kts | 150° |
| 2026-04-25 20:28 | -18.07581 | -51.57623 | 34973 ft | 468 kts | 150° |
| 2026-04-25 20:29 | -18.13280 | -51.54320 | 34983 ft | 467 kts | 150° |
| 2026-04-25 20:29 | -18.19037 | -51.51138 | 35065 ft | 467 kts | 151° |
| 2026-04-25 20:30 | -18.21907 | -51.49533 | 34956 ft | 467 kts | 150° |
| 2026-04-25 20:30 | -18.24713 | -51.47828 | 34938 ft | 464 kts | 148° |
| 2026-04-25 20:30 | -18.30194 | -51.44323 | 34935 ft | 465 kts | 147° |
| 2026-04-25 20:31 | -18.35718 | -51.40777 | 34931 ft | 466 kts | 148° |
| 2026-04-25 20:31 | -18.41308 | -51.37285 | 34939 ft | 467 kts | 149° |
| 2026-04-25 20:32 | -18.46926 | -51.33831 | 34944 ft | 468 kts | 149° |
| 2026-04-25 20:32 | -18.52545 | -51.30366 | 34950 ft | 468 kts | 149° |
| 2026-04-25 20:33 | -18.58161 | -51.26890 | 34954 ft | 468 kts | 149° |
| 2026-04-25 20:33 | -18.62827 | -51.23993 | 34954 ft | 468 kts | 149° |
| 2026-04-25 20:34 | -18.69387 | -51.19914 | 34957 ft | 468 kts | 149° |
| 2026-04-25 20:34 | -18.75002 | -51.16420 | 34956 ft | 468 kts | 149° |
| 2026-04-25 20:35 | -18.80580 | -51.12942 | 34961 ft | 468 kts | 149° |
| 2026-04-25 20:35 | -18.86194 | -51.09443 | 34961 ft | 468 kts | 149° |
| 2026-04-25 20:36 | -18.91809 | -51.05946 | 34953 ft | 468 kts | 149° |
| 2026-04-25 20:36 | -18.97426 | -51.02445 | 34951 ft | 468 kts | 149° |
| 2026-04-25 20:37 | -19.03029 | -50.98936 | 34949 ft | 468 kts | 149° |